createdAt,value
2023-05-06T00:04:50.388Z,98070.41
2023-05-06T00:09:52.714Z,98073.72
2023-05-06T00:14:54.906Z,98073.25
2023-05-06T00:19:58.859Z,98069.34
2023-05-06T00:25:01.087Z,98057.91
2023-05-06T00:30:04.337Z,98056.66
2023-05-06T00:35:07.432Z,98066.09
2023-05-06T00:40:10.833Z,98055.75
2023-05-06T00:45:13.311Z,98067.31
2023-05-06T00:50:15.734Z,98059.94
2023-05-06T00:55:18.235Z,98056.75
2023-05-06T01:00:21.605Z,98056.94
2023-05-06T01:05:29.985Z,98063.09
2023-05-06T01:10:52.584Z,98060.19
2023-05-06T01:15:59.695Z,98051.69
2023-05-06T01:21:05.339Z,98050.88
2023-05-06T01:26:07.501Z,98055.28
2023-05-06T01:31:15.287Z,98053.34
2023-05-06T01:37:10.814Z,98049.53
2023-05-06T01:42:15.568Z,98055.44
2023-05-06T01:47:19.690Z,98055.50
2023-05-06T01:52:22.541Z,98064.69
2023-05-06T01:57:25.706Z,98061.19
2023-05-06T02:02:27.936Z,98053.25
2023-05-06T02:07:30.394Z,98062.44
2023-05-06T02:12:32.888Z,98058.50
2023-05-06T02:17:37.517Z,98046.78
2023-05-06T02:22:40.003Z,98053.91
2023-05-06T02:27:42.516Z,98058.97
2023-05-06T02:32:44.953Z,98058.84
2023-05-06T02:37:47.085Z,98053.00
2023-05-06T02:42:50.545Z,98048.03
2023-05-06T02:47:52.758Z,98039.19
2023-05-06T02:52:54.913Z,98031.19
2023-05-06T02:57:57.076Z,98035.78
2023-05-06T03:02:59.268Z,98041.56
2023-05-06T03:08:02.587Z,98039.47
2023-05-06T03:13:06.268Z,98047.69
2023-05-06T03:18:08.565Z,98049.50
2023-05-06T03:23:12.266Z,98039.59
2023-05-06T03:28:15.048Z,98039.03
2023-05-06T03:33:19.984Z,98039.03
2023-05-06T03:38:22.617Z,98037.25
2023-05-06T03:43:31.871Z,98036.38
2023-05-06T03:48:37.485Z,98034.06
2023-05-06T03:53:44.049Z,98032.59
2023-05-06T03:58:46.316Z,98025.69
2023-05-06T04:03:49.516Z,98030.88
2023-05-06T04:08:51.815Z,98027.72
2023-05-06T04:13:55.466Z,98034.00
2023-05-06T04:18:58.860Z,98036.78
2023-05-06T04:24:01.458Z,98028.13
2023-05-06T04:29:09.965Z,98036.91
2023-05-06T04:34:20.404Z,98046.63
2023-05-06T04:39:23.017Z,98042.66
2023-05-06T04:44:27.311Z,98046.19
2023-05-06T04:49:30.125Z,98052.06
2023-05-06T04:54:32.502Z,98062.44
2023-05-06T04:59:34.901Z,98053.94
2023-05-06T05:04:38.249Z,98069.66
2023-05-06T05:09:40.941Z,98065.06
2023-05-06T05:14:43.594Z,98068.56
2023-05-06T05:19:47.707Z,98073.16
2023-05-06T05:24:51.785Z,98079.81
2023-05-06T05:29:54.283Z,98082.22
2023-05-06T05:34:57.414Z,98085.81
2023-05-06T05:40:00.427Z,98088.97
2023-05-06T05:45:02.815Z,98092.38
2023-05-06T05:50:05.746Z,98095.22
2023-05-06T05:55:09.044Z,98098.50
2023-05-06T06:00:14.256Z,98092.88
2023-05-06T06:05:19.161Z,98101.31
2023-05-06T06:10:21.376Z,98102.44
2023-05-06T06:15:24.615Z,98098.63
2023-05-06T06:20:28.856Z,98106.84
2023-05-06T06:25:31.189Z,98096.00
2023-05-06T06:30:33.604Z,98109.06
2023-05-06T06:35:36.121Z,98103.69
2023-05-06T06:40:41.045Z,98114.81
2023-05-06T06:45:48.314Z,98118.69
2023-05-06T06:50:50.744Z,98117.69
2023-05-06T06:55:53.160Z,98116.00
2023-05-06T07:00:55.326Z,98119.06
2023-05-06T07:05:57.431Z,98123.19
2023-05-06T07:11:01.307Z,98115.47
2023-05-06T07:16:03.914Z,98121.31
2023-05-06T07:21:06.202Z,98129.28
2023-05-06T07:26:08.295Z,98122.78
2023-05-06T07:31:10.805Z,98138.59
2023-05-06T07:36:13.166Z,98131.44
2023-05-06T07:41:15.482Z,98136.34
2023-05-06T07:46:17.874Z,98137.78
2023-05-06T07:51:20.117Z,98139.06
2023-05-06T07:56:22.459Z,98143.34
2023-05-06T08:01:25.614Z,98142.16
2023-05-06T08:06:27.819Z,98139.63
2023-05-06T08:11:29.952Z,98145.28
2023-05-06T08:16:32.310Z,98147.22
2023-05-06T08:21:34.470Z,98147.34
2023-05-06T08:26:38.537Z,98149.81
2023-05-06T08:31:40.918Z,98147.63
2023-05-06T08:36:43.300Z,98146.19
2023-05-06T08:41:52.477Z,98150.41
2023-05-06T08:46:54.952Z,98154.69
2023-05-06T08:51:58.292Z,98141.69
2023-05-06T08:57:06.244Z,98150.63
2023-05-06T09:02:08.784Z,98150.28
2023-05-06T09:07:11.280Z,98146.66
2023-05-06T09:12:15.162Z,98149.28
2023-05-06T09:17:28.698Z,98156.22
2023-05-06T09:22:31.381Z,98152.09
2023-05-06T09:27:36.977Z,98138.03
2023-05-06T09:32:40.702Z,98145.59
2023-05-06T09:37:43.191Z,98134.22
2023-05-06T09:42:45.916Z,98141.41
2023-05-06T09:47:49.893Z,98140.19
2023-05-06T09:52:52.335Z,98136.09
2023-05-06T09:57:56.440Z,98122.72
2023-05-06T10:03:00.928Z,98123.75
2023-05-06T10:08:04.633Z,98112.66
2023-05-06T10:13:07.095Z,98113.94
2023-05-06T10:18:09.893Z,98114.53
2023-05-06T10:23:24.098Z,98105.44
2023-05-06T10:28:30.914Z,98099.84
2023-05-06T10:33:34.739Z,98096.94
2023-05-06T10:38:44.560Z,98092.91
2023-05-06T10:43:47.874Z,98085.91
2023-05-06T10:49:04.913Z,98081.00
2023-05-06T10:54:07.910Z,98069.78
2023-05-06T10:59:12.545Z,98074.06
2023-05-06T11:04:18.781Z,98058.84
2023-05-06T11:09:27.862Z,98054.84
2023-05-06T11:14:35.920Z,98049.94
2023-05-06T11:19:40.240Z,98048.78
2023-05-06T11:24:44.328Z,98058.56
2023-05-06T11:29:46.895Z,98045.78
2023-05-06T11:34:49.264Z,98048.19
2023-05-06T11:39:51.394Z,98056.69
2023-05-06T11:44:55.937Z,98041.81
2023-05-06T11:49:59.190Z,98036.81
2023-05-06T11:55:01.328Z,98037.75
2023-05-06T12:00:05.231Z,98044.88
2023-05-06T12:05:14.679Z,98044.13
2023-05-06T12:10:17.715Z,98045.88
2023-05-06T12:15:20.112Z,98036.44
2023-05-06T12:20:23.405Z,98030.19
2023-05-06T12:25:25.747Z,98023.75
2023-05-06T12:30:34.669Z,98036.22
2023-05-06T12:35:37.617Z,98026.34
2023-05-06T12:40:44.672Z,98031.03
2023-05-06T12:46:09.469Z,98018.00
2023-05-06T12:51:19.589Z,98022.03
2023-05-06T12:56:22.687Z,98027.19
2023-05-06T13:01:24.906Z,98023.56
2023-05-06T13:06:27.009Z,98020.25
2023-05-06T13:11:29.181Z,98007.28
2023-05-06T13:16:32.575Z,98004.59
2023-05-06T13:21:36.230Z,97996.78
2023-05-06T13:26:38.952Z,97972.38
2023-05-06T13:31:41.251Z,97971.38
2023-05-06T13:36:44.199Z,97970.19
2023-05-06T13:41:50.359Z,97968.25
2023-05-06T13:46:52.802Z,97964.88
2023-05-06T13:51:54.996Z,97963.75
2023-05-06T13:56:58.487Z,97956.16
2023-05-06T14:02:01.305Z,97963.78
2023-05-06T14:07:03.592Z,97955.84
2023-05-06T14:12:06.169Z,97938.91
2023-05-06T14:17:08.315Z,97942.81
2023-05-06T14:22:10.423Z,97947.88
2023-05-06T14:27:12.652Z,97941.75
2023-05-06T14:32:15.527Z,97938.03
2023-05-06T14:37:18.014Z,97934.25
2023-05-06T14:42:20.158Z,97935.59
2023-05-06T14:47:22.607Z,97922.72
2023-05-06T14:52:24.977Z,97919.25
2023-05-06T14:57:27.154Z,97913.13
2023-05-06T15:02:29.382Z,97906.75
2023-05-06T15:07:31.626Z,97906.22
2023-05-06T15:12:36.512Z,97902.16
2023-05-06T15:17:39.607Z,97900.44
2023-05-06T15:22:41.860Z,97904.41
2023-05-06T15:27:44.256Z,97902.00
2023-05-06T15:32:49.179Z,97901.25
2023-05-06T15:37:58.863Z,97902.94
2023-05-06T15:43:01.186Z,97908.06
2023-05-06T15:48:03.385Z,97909.09
2023-05-06T15:53:05.611Z,97910.75
2023-05-06T15:58:07.707Z,97898.16
2023-05-06T16:03:12.024Z,97894.91
2023-05-06T16:08:15.193Z,97897.50
2023-05-06T16:13:17.842Z,97899.06
2023-05-06T16:18:20.056Z,97894.59
2023-05-06T16:23:22.246Z,97889.25
2023-05-06T16:28:24.802Z,97882.59
2023-05-06T16:33:27.024Z,97888.69
2023-05-06T16:38:29.161Z,97887.81
2023-05-06T16:43:31.558Z,97888.59
2023-05-06T16:48:34.407Z,97878.25
2023-05-06T16:53:36.763Z,97874.47
2023-05-06T16:58:39.235Z,97880.28
2023-05-06T17:03:43.026Z,97873.50
2023-05-06T17:08:45.539Z,97866.94
2023-05-06T17:13:47.899Z,97863.94
2023-05-06T17:18:50.085Z,97863.50
2023-05-06T17:23:54.616Z,97867.31
2023-05-06T17:28:56.763Z,97854.97
2023-05-06T17:33:58.965Z,97855.72
2023-05-06T17:39:05.871Z,97853.75
2023-05-06T17:44:08.266Z,97853.50
2023-05-06T17:49:10.634Z,97851.22
2023-05-06T17:54:13.629Z,97851.22
2023-05-06T17:59:17.761Z,97855.00
2023-05-06T18:04:19.861Z,97854.78
2023-05-06T18:09:22.070Z,97854.78
2023-05-06T18:14:24.311Z,97861.09
2023-05-06T18:19:26.457Z,97875.69
2023-05-06T18:24:28.554Z,97864.38
2023-05-06T18:29:32.777Z,97870.19
2023-05-06T18:34:35.138Z,97883.50
2023-05-06T18:39:45.655Z,97889.22
2023-05-06T18:44:50.427Z,97898.06
2023-05-06T18:49:53.585Z,97895.28
2023-05-06T18:54:55.734Z,97903.38
2023-05-06T18:59:57.930Z,97908.94
2023-05-06T19:05:00.164Z,97897.81
2023-05-06T19:10:02.435Z,97909.09
2023-05-06T19:15:05.171Z,97908.38
2023-05-06T19:20:08.838Z,97912.88
2023-05-06T19:25:11.639Z,97916.91
2023-05-06T19:30:14.401Z,97921.44
2023-05-06T19:35:17.806Z,97917.34
2023-05-06T19:40:20.629Z,97917.63
2023-05-06T19:45:22.776Z,97926.22
2023-05-06T19:50:28.572Z,97922.44
2023-05-06T19:55:31.473Z,97928.44
2023-05-06T20:00:33.884Z,97918.59
2023-05-06T20:05:36.314Z,97921.19
2023-05-06T20:10:39.002Z,97920.66
2023-05-06T20:15:41.706Z,97921.94
2023-05-06T20:20:44.322Z,97925.53
2023-05-06T20:25:46.606Z,97917.94
2023-05-06T20:30:48.992Z,97924.22
2023-05-06T20:35:52.447Z,97922.38
2023-05-06T20:40:54.614Z,97914.22
2023-05-06T20:45:56.824Z,97915.63
2023-05-06T20:50:59.064Z,97914.94
2023-05-06T20:56:01.592Z,97915.44
2023-05-06T21:01:04.036Z,97911.44
2023-05-06T21:06:06.360Z,97908.63
2023-05-06T21:11:08.441Z,97906.38
2023-05-06T21:16:10.575Z,97904.50
2023-05-06T21:21:12.688Z,97904.34
2023-05-06T21:26:16.016Z,97907.69
2023-05-06T21:31:24.189Z,97917.22
2023-05-06T21:36:27.300Z,97911.38
2023-05-06T21:41:29.570Z,97907.06
2023-05-06T21:46:33.043Z,97898.72
2023-05-06T21:51:36.645Z,97900.56
2023-05-06T21:56:38.867Z,97893.13
2023-05-06T22:01:41.042Z,97902.78
2023-05-06T22:06:43.223Z,97894.94
2023-05-06T22:11:45.732Z,97897.72
2023-05-06T22:16:48.247Z,97893.06
2023-05-06T22:21:50.409Z,97896.56
2023-05-06T22:26:52.563Z,97896.31
2023-05-06T22:31:54.767Z,97893.47
2023-05-06T22:36:59.162Z,97899.25
2023-05-06T22:42:02.988Z,97897.13
2023-05-06T22:47:05.171Z,97896.84
2023-05-06T22:52:07.382Z,97903.97
2023-05-06T22:57:09.780Z,97884.31
2023-05-06T23:02:12.218Z,97891.63
2023-05-06T23:07:14.847Z,97884.31
2023-05-06T23:12:17.221Z,97890.03
2023-05-06T23:17:19.435Z,97885.94
2023-05-06T23:22:21.552Z,97889.56
2023-05-06T23:27:23.845Z,97896.72
2023-05-06T23:32:26.382Z,97895.97
2023-05-06T23:37:28.592Z,97893.13
2023-05-06T23:42:30.851Z,97891.34
2023-05-06T23:47:33.218Z,97900.50
2023-05-06T23:52:38.366Z,97898.81
2023-05-06T23:57:40.563Z,97876.59
